Time;durP1;ratioP1;P1;durP2;ratioP2;P2;SDS_P1;SDS_P2;PMS_P1;PMS_P2;Temp;Humidity;BMP_temperature;BMP_pressure;BME280_temperature;BME280_humidity;BME280_pressure;Samples;Min_cycle;Max_cycle;Signal;HPM_P1;HPM_P2
2021/03/15 00:01:43;;;;;;;18.15;8.45;;;;;;;4.25;65.86;97333.63;1826683;78;21117;-70
2021/03/15 00:04:09;;;;;;;18.37;7.97;;;;;;;4.27;66.39;97339.27;1826621;77;21210;-70
2021/03/15 00:06:35;;;;;;;17.25;9.10;;;;;;;4.27;66.46;97338.73;1826639;78;22032;-70
2021/03/15 00:09:02;;;;;;;17.40;8.98;;;;;;;4.30;66.37;97339.58;1826514;77;21142;-70
2021/03/15 00:11:28;;;;;;;19.40;10.25;;;;;;;4.32;66.60;97340.13;1826564;78;21023;-70
2021/03/15 00:13:54;;;;;;;18.40;10.25;;;;;;;4.35;66.79;97333.43;1826649;77;21125;-70
2021/03/15 00:16:20;;;;;;;16.42;9.53;;;;;;;4.35;66.55;97332.09;1826611;78;21098;-70
2021/03/15 00:18:47;;;;;;;23.57;10.23;;;;;;;4.38;66.38;97331.06;1826653;77;22266;-70
2021/03/15 00:21:13;;;;;;;24.63;10.78;;;;;;;4.38;66.64;97332.41;1826510;78;21094;-70
2021/03/15 00:23:39;;;;;;;22.27;10.63;;;;;;;4.36;67.19;97335.88;1826647;78;21138;-71
2021/03/15 00:26:05;;;;;;;19.48;9.23;;;;;;;4.31;68.10;97329.66;1826561;77;21026;-70
2021/03/15 00:28:31;;;;;;;19.82;10.48;;;;;;;4.28;67.24;97333.67;1826678;78;21097;-70
2021/03/15 00:30:58;;;;;;;22.05;11.33;;;;;;;4.25;67.09;97330.14;1825668;77;21261;-70
2021/03/15 00:33:24;;;;;;;22.77;10.80;;;;;;;4.23;66.94;97337.10;1824518;78;21125;-70
2021/03/15 00:35:51;;;;;;;21.17;11.35;;;;;;;4.24;66.70;97333.89;1824596;77;21514;-70
2021/03/15 00:38:17;;;;;;;19.30;10.45;;;;;;;4.24;67.02;97337.91;1824632;78;21098;-70
2021/03/15 00:40:43;;;;;;;24.30;11.75;;;;;;;4.23;67.44;97341.13;1824511;77;21106;-70
2021/03/15 00:43:09;;;;;;;22.87;12.35;;;;;;;4.21;67.41;97336.55;1824573;78;21588;-70
2021/03/15 00:45:35;;;;;;;21.30;10.40;;;;;;;4.21;67.21;97333.06;1824512;77;21384;-70
2021/03/15 00:48:02;;;;;;;20.90;10.63;;;;;;;4.23;66.76;97329.59;1824554;78;21114;-70
2021/03/15 00:50:39;;;;;;;23.32;10.25;;;;;;;4.20;66.69;97326.89;1824589;77;21594;-70
2021/03/15 00:53:02;;;;;;;23.25;11.25;;;;;;;4.17;66.74;97331.41;1824536;78;21523;-71
2021/03/15 00:55:29;;;;;;;18.23;10.08;;;;;;;4.17;67.39;97323.89;1824564;77;22227;-71
2021/03/15 00:57:55;;;;;;;19.07;9.98;;;;;;;4.19;68.31;97325.28;1824544;78;21150;-70
2021/03/15 01:00:27;;;;;;;17.62;9.10;;;;;;;4.20;68.28;97320.73;1824571;77;21106;-71
2021/03/15 01:02:53;;;;;;;19.35;10.95;;;;;;;4.21;68.46;97314.30;1824556;78;21062;-71
2021/03/15 01:05:26;;;;;;;18.20;9.73;;;;;;;4.22;68.58;97308.67;1824565;77;21000;-71
2021/03/15 01:07:52;;;;;;;27.45;10.48;;;;;;;4.30;68.23;97306.58;1824533;78;21181;-70
2021/03/15 01:10:22;;;;;;;20.08;11.43;;;;;;;4.34;68.74;97305.80;1824470;77;21416;-70
2021/03/15 01:12:48;;;;;;;14.47;9.15;;;;;;;4.38;68.50;97299.41;1824512;78;21086;-71
2021/03/15 01:15:15;;;;;;;22.07;10.55;;;;;;;4.39;68.25;97293.78;1824457;77;21011;-72
2021/03/15 01:17:41;;;;;;;21.60;10.30;;;;;;;4.41;67.86;97296.20;1797282;78;21516;-71
2021/03/15 01:20:08;;;;;;;21.17;10.63;;;;;;;4.42;67.74;97287.08;1824538;77;22343;-72
2021/03/15 01:22:34;;;;;;;24.72;11.83;;;;;;;4.39;68.19;97280.91;1824416;78;21205;-71
2021/03/15 01:25:01;;;;;;;21.23;10.93;;;;;;;4.37;68.19;97282.50;1797088;78;21082;-72
2021/03/15 01:27:27;;;;;;;24.07;12.85;;;;;;;4.33;67.95;97277.36;1824482;78;21024;-71
2021/03/15 01:29:53;;;;;;;28.50;14.35;;;;;;;4.29;68.01;97273.59;1824595;77;21063;-71
2021/03/15 01:32:20;;;;;;;34.53;16.87;;;;;;;4.23;68.27;97272.73;1824440;77;21487;-72
2021/03/15 01:34:46;;;;;;;32.13;16.52;;;;;;;4.21;67.82;97263.34;1824421;77;21047;-71
2021/03/15 01:37:12;;;;;;;33.75;17.98;;;;;;;4.13;69.04;97265.96;1824599;78;21483;-72
2021/03/15 01:39:38;;;;;;;39.13;18.32;;;;;;;4.08;68.12;97264.56;1824585;77;21034;-71
2021/03/15 01:42:05;;;;;;;34.58;17.50;;;;;;;4.08;68.00;97261.08;1824591;78;21056;-72
2021/03/15 01:44:31;;;;;;;34.15;17.23;;;;;;;4.06;67.87;97265.36;1824590;77;21464;-71
2021/03/15 01:46:57;;;;;;;36.68;15.78;;;;;;;4.04;68.82;97259.45;1824429;78;21026;-71
2021/03/15 01:49:23;;;;;;;28.75;16.23;;;;;;;4.02;68.21;97262.94;1824485;77;21086;-72
2021/03/15 01:51:50;;;;;;;26.30;13.65;;;;;;;4.00;69.37;97260.20;1824559;78;21113;-72
2021/03/15 01:54:18;;;;;;;26.10;12.40;;;;;;;4.00;69.60;97255.66;1824551;77;20995;-71
2021/03/15 01:56:44;;;;;;;21.00;10.63;;;;;;;4.02;69.17;97258.10;1824484;78;21245;-71
2021/03/15 01:59:11;;;;;;;16.70;10.03;;;;;;;4.05;69.54;97254.90;1796936;77;21165;-71
2021/03/15 02:01:37;;;;;;;19.07;10.85;;;;;;;4.08;69.41;97244.99;1824458;78;21011;-71
2021/03/15 02:04:03;;;;;;;21.80;12.58;;;;;;;4.06;69.34;97247.94;1824593;77;21546;-71
2021/03/15 02:06:29;;;;;;;33.83;16.42;;;;;;;4.09;70.38;97244.73;1824499;78;21126;-71
2021/03/15 02:08:56;;;;;;;30.30;15.20;;;;;;;4.13;69.64;97249.06;1824512;77;21188;-71
2021/03/15 02:11:27;;;;;;;32.25;15.45;;;;;;;4.11;70.00;97249.33;1824599;78;21062;-72
2021/03/15 02:14:30;;;;;;;23.15;12.45;;;;;;;4.14;69.51;97248.80;1824099;77;21091;-72
2021/03/15 02:17:04;;;;;;;28.98;15.15;;;;;;;4.12;70.28;97246.92;1824666;78;21408;-71
2021/03/15 02:20:08;;;;;;;25.45;13.30;;;;;;;4.11;70.00;97247.18;1822864;77;21093;-71
2021/03/15 02:22:58;;;;;;;22.95;12.30;;;;;;;4.11;69.60;97244.50;1824716;78;21218;-72
2021/03/15 02:26:03;;;;;;;26.40;13.15;;;;;;;4.07;70.64;97246.06;1824711;77;21003;-71
2021/03/15 02:28:49;;;;;;;26.87;13.60;;;;;;;4.07;70.38;97242.04;1890193;76;23034;-70
2021/03/15 02:31:57;;;;;;;25.82;13.08;;;;;;;4.00;69.87;97246.80;1827424;78;21050;-71
2021/03/15 02:34:56;;;;;;;23.25;12.03;;;;;;;3.98;70.07;97253.77;1827510;78;21195;-70
2021/03/15 02:37:29;;;;;;;24.10;13.70;;;;;;;3.92;70.65;97256.92;1827301;78;21066;-71
2021/03/15 02:39:58;;;;;;;30.40;15.65;;;;;;;3.92;69.96;97260.95;1827449;78;21423;-71
2021/03/15 02:42:24;;;;;;;23.07;13.03;;;;;;;3.99;69.61;97268.78;1827592;78;21113;-71
2021/03/15 02:44:54;;;;;;;20.88;12.30;;;;;;;4.06;69.48;97273.94;1827331;78;21121;-71
2021/03/15 02:47:24;;;;;;;25.52;13.60;;;;;;;4.12;69.54;97274.27;1827376;78;22111;-71
2021/03/15 02:49:56;;;;;;;40.98;14.15;;;;;;;4.16;69.68;97280.72;1827100;78;21125;-71
2021/03/15 02:52:22;;;;;;;21.17;12.25;;;;;;;4.15;69.57;97275.89;1827280;78;20971;-72
2021/03/15 02:54:48;;;;;;;27.10;13.40;;;;;;;4.19;69.67;97280.23;1827327;78;21094;-71
2021/03/15 02:57:17;;;;;;;23.80;13.50;;;;;;;4.21;69.75;97280.77;1827255;78;21169;-72
2021/03/15 02:59:44;;;;;;;23.35;12.58;;;;;;;4.20;69.84;97281.30;1827420;78;21320;-71
2021/03/15 03:02:10;;;;;;;22.60;13.28;;;;;;;4.22;69.92;97288.55;1827238;78;21550;-71
2021/03/15 03:04:37;;;;;;;24.90;12.30;;;;;;;4.23;70.45;97283.46;1827257;78;21042;-71
2021/03/15 03:07:05;;;;;;;24.60;12.58;;;;;;;4.21;69.96;97285.60;1827236;78;21106;-72
2021/03/15 03:09:33;;;;;;;23.65;12.15;;;;;;;4.21;69.75;97289.63;1827375;78;21085;-72
2021/03/15 03:12:00;;;;;;;26.52;13.78;;;;;;;4.22;70.32;97288.55;1827435;78;26559;-71
2021/03/15 03:14:27;;;;;;;21.10;13.05;;;;;;;4.20;69.62;97291.23;1827212;78;21122;-71
2021/03/15 03:16:53;;;;;;;28.95;13.98;;;;;;;4.16;70.65;97289.57;1827360;78;21046;-71
2021/03/15 03:19:20;;;;;;;26.30;14.60;;;;;;;4.13;70.40;97291.44;1827263;78;21022;-71
2021/03/15 03:21:46;;;;;;;26.10;13.88;;;;;;;4.09;70.71;97294.33;1827353;78;21153;-71
2021/03/15 03:24:12;;;;;;;25.50;13.85;;;;;;;4.06;70.42;97294.86;1822255;78;21130;-71
2021/03/15 03:26:39;;;;;;;26.52;14.03;;;;;;;4.06;70.02;97288.69;1826991;78;21149;-71
2021/03/15 03:29:07;;;;;;;28.35;14.45;;;;;;;4.02;71.39;97293.77;1827297;78;21095;-71
2021/03/15 03:31:37;;;;;;;27.75;14.68;;;;;;;4.01;70.60;97294.80;1827261;78;20956;-71
2021/03/15 03:34:03;;;;;;;24.65;13.53;;;;;;;4.06;70.25;97294.05;1827267;78;21125;-71
2021/03/15 03:36:29;;;;;;;23.20;13.90;;;;;;;4.08;71.19;97294.59;1827250;78;21224;-71
2021/03/15 03:38:55;;;;;;;25.88;13.68;;;;;;;4.04;71.32;97290.82;1826951;78;21557;-71
2021/03/15 03:41:21;;;;;;;24.32;13.30;;;;;;;4.07;70.83;97290.30;1826716;78;21145;-71
2021/03/15 03:43:48;;;;;;;24.57;13.45;;;;;;;4.03;72.02;97289.20;1826616;78;21070;-71
2021/03/15 03:46:14;;;;;;;24.85;13.53;;;;;;;3.96;72.54;97290.75;1826804;78;21110;-71
2021/03/15 03:48:41;;;;;;;23.95;13.22;;;;;;;3.94;72.21;97289.67;1826694;78;21193;-71
2021/03/15 03:51:07;;;;;;;25.37;13.80;;;;;;;3.88;72.46;97294.70;1826596;78;21564;-71
2021/03/15 03:53:44;;;;;;;30.57;14.83;;;;;;;3.92;71.60;97285.07;1826637;78;21110;-71
2021/03/15 03:56:20;;;;;;;24.25;15.05;;;;;;;3.94;71.95;97291.02;1826599;78;21117;-72
2021/03/15 03:58:51;;;;;;;27.48;14.47;;;;;;;3.90;71.90;97292.56;1826603;78;21040;-71
2021/03/15 04:01:19;;;;;;;27.62;14.78;;;;;;;3.86;72.46;97293.34;1826630;78;21190;-72
2021/03/15 04:03:48;;;;;;;29.77;14.75;;;;;;;3.81;73.18;97292.75;1826661;78;21054;-71
2021/03/15 04:06:14;;;;;;;30.48;15.13;;;;;;;3.78;73.34;97303.19;1794844;78;21503;-71
2021/03/15 04:09:06;;;;;;;27.82;14.43;;;;;;;3.77;72.12;97299.70;1826587;78;21110;-71
2021/03/15 04:11:48;;;;;;;27.98;15.03;;;;;;;3.78;72.46;97293.27;1847713;76;22403;-70
2021/03/15 04:14:19;;;;;;;31.10;14.65;;;;;;;3.74;71.83;97296.16;1811946;79;21058;-72
2021/03/15 04:16:45;;;;;;;29.65;13.95;;;;;;;3.68;73.21;97291.84;1786001;80;21203;-71
2021/03/15 04:19:11;;;;;;;28.30;14.90;;;;;;;3.67;73.17;97291.03;1785906;79;21007;-72
2021/03/15 04:21:37;;;;;;;28.57;14.65;;;;;;;3.70;72.29;97289.70;1785860;80;21030;-71
2021/03/15 04:24:04;;;;;;;26.37;13.68;;;;;;;3.74;72.31;97290.80;1785967;79;21554;-72
2021/03/15 04:26:31;;;;;;;24.77;13.45;;;;;;;3.75;72.50;97287.59;1730879;80;20897;-72
2021/03/15 04:28:57;;;;;;;70.28;19.73;;;;;;;3.77;72.66;97291.66;1785881;79;21244;-71
2021/03/15 04:31:24;;;;;;;114.62;24.52;;;;;;;3.83;72.03;97284.45;1785747;80;21007;-72
2021/03/15 04:33:50;;;;;;;77.70;20.10;;;;;;;3.87;71.86;97277.00;1785931;79;21499;-71
2021/03/15 04:36:16;;;;;;;41.80;17.02;;;;;;;3.88;71.64;97279.16;1785840;80;21086;-72
2021/03/15 04:38:42;;;;;;;38.50;15.30;;;;;;;3.92;71.73;97282.39;1755498;80;21141;-72
2021/03/15 04:41:09;;;;;;;33.35;17.67;;;;;;;3.93;71.72;97285.38;1755342;80;21436;-72
2021/03/15 04:43:38;;;;;;;32.25;17.52;;;;;;;3.94;71.54;97282.16;1785805;80;21110;-72
2021/03/15 04:46:06;;;;;;;39.73;18.87;;;;;;;3.93;71.30;97285.88;1755800;80;21105;-71
2021/03/15 04:48:33;;;;;;;41.90;18.65;;;;;;;3.87;72.55;97285.05;1785412;80;21079;-72
2021/03/15 04:51:01;;;;;;;56.02;28.30;;;;;;;3.84;71.90;97284.73;1785819;79;21012;-71
2021/03/15 04:53:28;;;;;;;47.88;22.70;;;;;;;3.82;71.60;97290.34;1786138;80;21460;-72
2021/03/15 04:56:02;;;;;;;80.10;21.77;;;;;;;3.82;71.31;97282.84;1785843;79;21102;-72
2021/03/15 04:58:28;;;;;;;48.30;22.50;;;;;;;3.83;71.15;97282.58;1715148;80;21076;-71
2021/03/15 05:00:56;;;;;;;39.30;18.17;;;;;;;3.83;71.20;97284.45;1785876;79;21157;-70
2021/03/15 05:03:23;;;;;;;41.33;17.07;;;;;;;3.81;71.25;97295.97;1786202;80;21460;-71
2021/03/15 05:05:50;;;;;;;37.95;15.55;;;;;;;3.80;71.27;97298.38;1755379;80;21417;-71
2021/03/15 05:08:20;;;;;;;29.60;14.15;;;;;;;3.75;71.69;97296.97;1730966;80;21123;-71
2021/03/15 05:10:46;;;;;;;29.25;16.80;;;;;;;3.73;71.74;97295.89;1785689;79;21475;-71
2021/03/15 05:13:13;;;;;;;30.72;17.73;;;;;;;3.66;71.85;97286.70;1785923;80;21542;-71
2021/03/15 05:15:39;;;;;;;30.00;16.23;;;;;;;3.68;72.22;97293.17;1785875;79;21038;-71
2021/03/15 05:18:08;;;;;;;54.70;22.02;;;;;;;3.74;72.24;97286.78;1785840;80;21250;-71
2021/03/15 05:20:36;;;;;;;46.15;24.63;;;;;;;3.83;72.28;97283.11;1785678;79;21098;-71
2021/03/15 05:23:09;;;;;;;54.00;20.48;;;;;;;3.88;72.18;97283.17;1755065;80;21074;-72
2021/03/15 05:25:40;;;;;;;41.83;20.30;;;;;;;3.84;72.15;97281.52;1785185;79;21111;-71
2021/03/15 05:28:06;;;;;;;56.85;19.42;;;;;;;3.89;72.14;97282.91;1785434;80;21482;-71
2021/03/15 05:30:34;;;;;;;26.60;15.75;;;;;;;3.89;72.01;97281.57;1785189;79;21203;-71
2021/03/15 05:33:00;;;;;;;32.60;15.72;;;;;;;3.91;71.94;97279.97;1785281;80;21062;-72
2021/03/15 05:35:26;;;;;;;26.40;14.45;;;;;;;3.91;71.77;97283.99;1785330;79;21472;-72
2021/03/15 05:37:52;;;;;;;26.55;16.70;;;;;;;3.89;71.70;97288.80;1785246;80;20999;-72
2021/03/15 05:40:23;;;;;;;35.03;16.73;;;;;;;3.85;71.70;97289.05;1785210;79;21087;-72
2021/03/15 05:43:28;;;;;;;34.73;19.23;;;;;;;3.76;71.63;97294.06;1785228;80;21186;-71
2021/03/15 05:46:06;;;;;;;43.70;22.60;;;;;;;3.65;71.96;97295.81;1774736;80;21103;-71
2021/03/15 05:48:57;;;;;;;37.88;23.55;;;;;;;3.61;72.25;97296.58;1785019;80;21078;-70
2021/03/15 05:51:44;;;;;;;44.63;20.70;;;;;;;3.61;72.42;97294.71;1784615;80;21146;-71
2021/03/15 05:54:46;;;;;;;28.27;14.83;;;;;;;3.69;72.74;97305.51;1785319;79;21550;-71
2021/03/15 05:57:35;;;;;;;39.88;18.98;;;;;;;3.69;73.40;97296.13;1784778;80;21161;-71
2021/03/15 06:00:28;;;;;;;46.10;21.85;;;;;;;3.64;73.25;97293.39;1785163;79;21051;-71
2021/03/15 06:03:20;;;;;;;42.98;22.17;;;;;;;3.64;73.27;97293.39;1784426;80;21150;-71
2021/03/15 06:05:47;;;;;;;29.98;18.80;;;;;;;3.72;73.17;97298.83;1785059;79;21488;-71
2021/03/15 06:08:22;;;;;;;31.33;17.23;;;;;;;3.79;73.07;97296.22;1785271;80;21107;-71
2021/03/15 06:11:05;;;;;;;26.50;15.98;;;;;;;3.84;72.92;97292.77;1790129;79;21094;-71
2021/03/15 06:13:32;;;;;;;28.55;15.00;;;;;;;3.89;72.73;97298.19;1799728;79;21102;-71
2021/03/15 06:15:59;;;;;;;34.45;18.87;;;;;;;3.94;72.51;97292.35;1780732;79;21047;-71
2021/03/15 06:18:26;;;;;;;56.02;32.10;;;;;;;3.94;72.28;97297.72;1780828;80;21098;-71
2021/03/15 06:20:52;;;;;;;66.60;40.33;;;;;;;3.98;72.27;97298.53;1780753;79;21062;-71
2021/03/15 06:23:18;;;;;;;56.58;34.33;;;;;;;4.03;72.81;97298.59;1780890;80;21194;-71
2021/03/15 06:25:47;;;;;;;50.63;30.90;;;;;;;4.10;72.56;97300.50;1780651;79;21099;-71
2021/03/15 06:28:13;;;;;;;49.97;30.53;;;;;;;4.19;72.63;97299.80;1781040;80;21103;-71
2021/03/15 06:30:40;;;;;;;42.93;26.65;;;;;;;4.29;72.60;97301.75;1780762;79;21044;-71
2021/03/15 06:33:06;;;;;;;44.03;24.72;;;;;;;4.39;72.66;97299.67;1756914;80;21071;-71
2021/03/15 06:35:47;;;;;;;63.48;34.23;;;;;;;4.46;72.60;97296.25;1731908;81;22103;-71
2021/03/15 06:38:17;;;;;;;34.88;20.65;;;;;;;4.52;72.43;97301.37;1780781;80;21483;-71
2021/03/15 06:40:43;;;;;;;45.45;21.90;;;;;;;4.61;72.34;97300.35;1762210;81;21540;-71
2021/03/15 06:43:14;;;;;;;46.25;25.35;;;;;;;4.53;72.37;97302.20;1780772;80;21150;-71
2021/03/15 06:45:52;;;;;;;51.45;20.72;;;;;;;4.53;72.09;97306.23;1780710;79;21094;-71
2021/03/15 06:48:19;;;;;;;54.90;26.02;;;;;;;4.56;71.98;97299.53;1761208;81;21338;-71
2021/03/15 06:50:46;;;;;;;69.35;32.65;;;;;;;4.54;71.82;97305.16;1749717;82;21500;-71
2021/03/15 06:53:12;;;;;;;54.18;31.35;;;;;;;4.49;71.92;97311.81;1780905;80;21071;-71
2021/03/15 06:55:53;;;;;;;30.52;17.73;;;;;;;4.40;71.65;97299.95;1780782;79;21035;-71
2021/03/15 06:58:28;;;;;;;26.15;14.58;;;;;;;4.42;71.51;97298.62;1780918;80;21070;-71
2021/03/15 07:01:17;;;;;;;26.35;14.60;;;;;;;4.42;71.42;97303.17;1780723;79;21266;-71
2021/03/15 07:03:48;;;;;;;30.55;18.12;;;;;;;4.25;71.00;97316.19;1780271;80;21154;-72
2021/03/15 07:06:17;;;;;;;53.28;32.75;;;;;;;4.17;70.88;97312.64;1780757;80;21083;-72
2021/03/15 07:08:46;;;;;;;73.95;39.60;;;;;;;4.15;71.08;97308.06;1780867;80;21135;-72
2021/03/15 07:11:25;;;;;;;76.35;40.35;;;;;;;4.22;71.04;97316.72;1780867;80;21004;-72
2021/03/15 07:13:52;;;;;;;80.87;43.02;;;;;;;4.17;70.88;97319.88;1780795;79;22038;-72
2021/03/15 07:16:23;;;;;;;60.12;30.25;;;;;;;4.15;71.35;97317.45;1780774;80;21091;-72
2021/03/15 07:18:49;;;;;;;44.63;21.90;;;;;;;4.25;70.87;97317.53;1780734;79;21060;-71
2021/03/15 07:21:15;;;;;;;65.37;24.55;;;;;;;4.38;70.90;97315.50;1780724;80;21106;-71
2021/03/15 07:23:47;;;;;;;45.10;22.27;;;;;;;4.52;70.87;97315.31;1780759;80;21138;-71
2021/03/15 07:26:20;;;;;;;77.37;39.33;;;;;;;4.61;70.54;97316.98;1780724;80;21199;-71
2021/03/15 07:28:46;;;;;;;55.78;32.63;;;;;;;4.63;69.61;97322.92;1780678;80;21130;-71
2021/03/15 07:31:29;;;;;;;40.08;20.05;;;;;;;4.74;69.94;97319.23;1780736;80;21051;-71
2021/03/15 07:34:01;;;;;;;51.05;38.53;;;;;;;4.89;69.82;97317.98;1779216;79;21139;-71
2021/03/15 07:36:29;;;;;;;43.55;28.92;;;;;;;4.85;68.99;97320.09;1762273;81;21105;-71
2021/03/15 07:38:56;;;;;;;43.33;19.50;;;;;;;4.90;68.71;97319.60;1749910;81;22342;-71
2021/03/15 07:41:23;;;;;;;46.90;20.48;;;;;;;4.97;68.72;97322.06;1780679;80;21031;-71
2021/03/15 07:43:51;;;;;;;63.65;33.75;;;;;;;5.16;69.05;97324.56;1780785;79;21555;-71
2021/03/15 07:46:24;;;;;;;34.37;21.37;;;;;;;5.33;68.43;97319.80;1780960;80;21106;-71
2021/03/15 07:48:51;;;;;;;50.30;27.05;;;;;;;5.48;67.89;97314.23;1780802;79;21071;-71
2021/03/15 07:51:30;;;;;;;173.82;75.52;;;;;;;5.43;65.98;97315.00;1780685;80;21270;-71
2021/03/15 07:54:08;;;;;;;114.40;37.35;;;;;;;5.69;66.79;97315.89;1778941;79;21162;-71
2021/03/15 07:56:34;;;;;;;204.32;84.62;;;;;;;5.94;66.82;97311.94;1760844;81;21513;-71
2021/03/15 07:59:00;;;;;;;79.07;35.28;;;;;;;6.08;65.54;97319.50;1731849;81;21159;-71
2021/03/15 08:01:26;;;;;;;76.33;37.48;;;;;;;6.07;64.16;97324.07;1780796;80;21111;-71
2021/03/15 08:03:53;;;;;;;66.72;23.35;;;;;;;6.00;64.15;97324.87;1762140;81;21199;-71
2021/03/15 08:06:21;;;;;;;68.62;33.73;;;;;;;6.15;65.67;97316.82;1780610;80;21429;-71
2021/03/15 08:08:48;;;;;;;70.90;31.23;;;;;;;5.86;63.22;97323.72;1762115;81;21101;-71
2021/03/15 08:11:16;;;;;;;140.25;61.80;;;;;;;5.77;64.59;97323.44;1780580;80;21502;-71
2021/03/15 08:13:49;;;;;;;128.02;28.00;;;;;;;5.72;64.41;97320.72;1781016;80;21083;-71
2021/03/15 08:16:21;;;;;;;103.35;22.13;;;;;;;5.70;64.67;97321.53;1780805;80;21487;-71
2021/03/15 08:18:48;;;;;;;64.30;18.55;;;;;;;5.83;64.31;97327.77;1755971;79;21119;-72
2021/03/15 08:21:29;;;;;;;48.90;17.17;;;;;;;5.98;64.26;97321.61;1731925;82;21142;-71
2021/03/15 08:23:56;;;;;;;76.65;40.65;;;;;;;5.78;62.54;97326.39;1780675;79;21090;-71
2021/03/15 08:26:22;;;;;;;83.82;47.95;;;;;;;5.79;63.75;97329.34;1762219;81;21029;-71
2021/03/15 08:28:48;;;;;;;80.38;44.60;;;;;;;5.81;63.95;97324.53;1780685;79;21442;-71
2021/03/15 08:31:27;;;;;;;61.58;32.63;;;;;;;5.63;63.52;97325.80;1731865;82;21565;-71
2021/03/15 08:33:53;;;;;;;63.85;33.48;;;;;;;5.56;63.91;97325.27;1780781;79;21059;-71
2021/03/15 08:36:19;;;;;;;118.62;58.35;;;;;;;5.51;63.87;97325.25;1731908;82;21528;-71
2021/03/15 08:38:46;;;;;;;70.72;31.57;;;;;;;5.41;63.96;97323.06;1780770;80;21539;-72
2021/03/15 08:41:21;;;;;;;102.32;32.45;;;;;;;5.68;64.35;97325.56;1762157;81;21208;-72
2021/03/15 08:43:48;;;;;;;73.70;25.70;;;;;;;5.66;63.73;97321.27;1780626;79;21115;-72
2021/03/15 08:46:18;;;;;;;196.07;40.63;;;;;;;5.71;63.61;97319.65;1780762;80;21472;-72
2021/03/15 08:48:51;;;;;;;524.67;78.95;;;;;;;5.81;63.44;97316.98;1762168;81;21525;-72
2021/03/15 08:51:37;;;;;;;265.12;64.65;;;;;;;6.06;63.77;97318.39;1780686;80;21102;-71
2021/03/15 08:54:07;;;;;;;49.45;19.00;;;;;;;6.31;62.30;97314.91;1780695;79;21130;-71
2021/03/15 08:56:37;;;;;;;106.40;23.52;;;;;;;6.47;61.63;97311.14;1756440;80;21526;-71
2021/03/15 08:59:09;;;;;;;38.28;17.98;;;;;;;6.58;61.76;97311.13;1779795;79;21122;-71
2021/03/15 09:01:50;;;;;;;34.92;16.17;;;;;;;6.77;61.33;97305.47;1780821;80;21094;-71
2021/03/15 09:04:33;;;;;;;54.23;24.25;;;;;;;6.69;61.03;97300.64;1780928;79;21051;-71
2021/03/15 09:07:01;;;;;;;37.55;20.10;;;;;;;6.77;60.68;97302.78;1780843;80;22064;-71
2021/03/15 09:09:30;;;;;;;67.92;36.42;;;;;;;6.66;59.87;97292.55;1780857;79;21118;-71
2021/03/15 09:11:59;;;;;;;57.98;32.23;;;;;;;6.99;59.23;97300.55;1785882;80;21138;-71
2021/03/15 09:14:34;;;;;;;37.65;19.12;;;;;;;6.87;58.65;97293.33;1788431;78;21527;-71
2021/03/15 09:17:18;;;;;;;40.90;24.95;;;;;;;7.01;58.94;97298.42;1788899;80;21007;-71
2021/03/15 09:19:47;;;;;;;33.35;16.95;;;;;;;6.77;59.30;97291.47;1777571;78;22263;-72
2021/03/15 09:22:27;;;;;;;54.77;32.75;;;;;;;7.35;59.97;97295.87;1788798;80;21122;-70
2021/03/15 09:25:02;;;;;;;56.05;32.53;;;;;;;7.30;57.90;97288.34;1788950;78;21026;-71
2021/03/15 09:27:39;;;;;;;29.57;18.80;;;;;;;7.38;58.24;97281.03;1788826;80;21066;-72
2021/03/15 09:30:18;;;;;;;28.27;18.48;;;;;;;7.58;58.44;97281.45;1788877;78;21070;-70
2021/03/15 09:32:50;;;;;;;29.12;16.20;;;;;;;7.63;58.17;97278.20;1788864;80;21174;-72
2021/03/15 09:35:20;;;;;;;28.60;17.15;;;;;;;7.55;56.69;97280.13;1788781;78;21459;-70
2021/03/15 09:37:53;;;;;;;25.35;15.70;;;;;;;7.55;57.68;97283.38;1788841;80;21077;-71
2021/03/15 09:40:24;;;;;;;25.08;15.55;;;;;;;7.64;55.94;97284.41;1788845;78;21011;-71
2021/03/15 09:42:50;;;;;;;25.55;15.68;;;;;;;7.46;56.23;97276.41;1764568;80;21432;-71
2021/03/15 09:45:38;;;;;;;29.63;16.60;;;;;;;7.58;56.24;97275.52;1787499;78;22087;-69
2021/03/15 09:48:20;;;;;;;30.77;17.40;;;;;;;7.84;55.99;97274.02;1784657;80;21479;-71
2021/03/15 09:50:52;;;;;;;32.03;17.27;;;;;;;7.84;55.44;97274.02;1788857;78;21102;-71
2021/03/15 09:53:19;;;;;;;30.92;16.25;;;;;;;7.65;55.74;97265.78;1788914;79;21050;-72
2021/03/15 09:55:45;;;;;;;32.10;21.48;;;;;;;7.95;56.67;97266.66;1764415;80;21082;-72
2021/03/15 09:58:20;;;;;;;33.18;16.73;;;;;;;8.10;56.35;97259.81;1788879;79;21207;-72
2021/03/15 10:00:46;;;;;;;29.02;17.77;;;;;;;8.40;56.63;97260.14;1788726;78;21122;-72
2021/03/15 10:03:21;;;;;;;27.40;16.07;;;;;;;8.30;54.44;97258.31;1788864;79;21428;-72
2021/03/15 10:05:50;;;;;;;26.30;14.63;;;;;;;8.31;55.21;97255.06;1788672;78;21598;-73
2021/03/15 10:08:16;;;;;;;27.27;14.55;;;;;;;8.33;55.35;97259.63;1788868;79;21083;-73
2021/03/15 10:10:42;;;;;;;36.65;18.32;;;;;;;8.14;54.71;97261.67;1788784;78;21412;-73
2021/03/15 10:13:09;;;;;;;28.00;15.88;;;;;;;8.12;55.17;97257.66;1785350;79;21122;-72
2021/03/15 10:15:36;;;;;;;34.23;16.85;;;;;;;7.97;55.56;97257.22;1785032;79;21102;-73
2021/03/15 10:18:02;;;;;;;68.40;20.02;;;;;;;7.92;54.73;97257.24;1784471;79;21077;-73
2021/03/15 10:20:32;;;;;;;219.32;38.80;;;;;;;8.27;54.65;97255.35;1784851;79;21095;-73
2021/03/15 10:23:11;;;;;;;188.42;33.98;;;;;;;8.45;55.39;97257.37;1785061;79;21195;-73
2021/03/15 10:25:40;;;;;;;94.95;25.90;;;;;;;8.72;54.87;97248.77;1759276;80;21126;-71
2021/03/15 10:28:06;;;;;;;;;;;;;;;9.02;53.13;97244.91;1748445;82;21149;-71
2021/03/15 10:30:34;;;;;;;71.57;21.82;;;;;;;8.62;52.34;97239.39;1717450;82;20479;-71
2021/03/15 10:33:01;;;;;;;31.17;14.80;;;;;;;8.59;52.35;97234.03;1689114;83;21076;-71
2021/03/15 10:35:30;;;;;;;33.80;15.20;;;;;;;8.50;53.41;97235.74;1717435;82;21272;-71
2021/03/15 10:38:01;;;;;;;28.52;16.00;;;;;;;8.67;53.75;97228.01;1717491;83;21107;-71
2021/03/15 10:40:27;;;;;;;25.57;15.63;;;;;;;8.68;54.21;97229.61;1717434;82;21179;-71
2021/03/15 10:42:54;;;;;;;23.38;13.70;;;;;;;8.71;51.30;97224.17;1717382;83;21158;-71
2021/03/15 10:45:26;;;;;;;20.92;13.38;;;;;;;8.86;52.45;97221.86;1717416;82;21044;-71
2021/03/15 10:48:01;;;;;;;25.92;14.55;;;;;;;8.49;50.44;97220.64;1717447;83;21213;-71
2021/03/15 10:50:36;;;;;;;22.37;14.23;;;;;;;8.63;52.28;97214.00;1717336;82;21167;-73
2021/03/15 10:53:21;;;;;;;41.98;19.32;;;;;;;8.92;52.74;97205.86;1717399;83;21099;-72
2021/03/15 10:55:47;;;;;;;22.87;11.43;;;;;;;9.17;52.86;97208.25;1717499;82;21535;-72
2021/03/15 10:58:18;;;;;;;16.05;10.63;;;;;;;9.11;49.14;97203.98;1717419;83;21047;-72
2021/03/15 11:00:49;;;;;;;25.08;12.90;;;;;;;8.88;49.11;97201.56;1717380;82;21206;-72
2021/03/15 11:03:29;;;;;;;34.67;20.45;;;;;;;9.25;50.62;97198.69;1716831;83;21119;-71
2021/03/15 11:06:11;;;;;;;17.27;9.58;;;;;;;9.39;49.71;97198.20;1717399;82;21108;-71
2021/03/15 11:08:37;;;;;;;11.73;8.30;;;;;;;9.39;49.71;97198.20;1717428;83;21106;-71
2021/03/15 11:11:26;;;;;;;9.58;6.15;;;;;;;9.29;49.59;97193.75;1717354;82;21437;-71
2021/03/15 11:13:57;;;;;;;12.40;9.68;;;;;;;8.87;44.30;97191.05;1717451;82;22014;-72
2021/03/15 11:16:31;;;;;;;17.75;9.95;;;;;;;8.97;47.27;97186.34;1717475;83;21125;-71
2021/03/15 11:19:16;;;;;;;13.03;8.38;;;;;;;8.72;46.65;97192.85;1717446;82;21135;-71
2021/03/15 11:21:44;;;;;;;12.20;7.45;;;;;;;8.40;46.30;97181.85;1717449;83;21139;-72
2021/03/15 11:24:11;;;;;;;13.63;7.53;;;;;;;8.55;45.95;97179.55;1717642;82;21630;-72
2021/03/15 11:26:49;;;;;;;16.00;8.95;;;;;;;8.54;46.21;97184.11;1717476;83;21255;-72
2021/03/15 11:29:20;;;;;;;11.63;8.30;;;;;;;8.33;46.85;97171.91;1716579;82;21071;-71
2021/03/15 11:31:51;;;;;;;13.18;8.70;;;;;;;8.38;48.18;97183.49;1713179;83;21117;-71
2021/03/15 11:34:20;;;;;;;14.28;8.20;;;;;;;8.28;47.48;97175.98;1717529;82;21096;-71
2021/03/15 11:36:47;;;;;;;26.12;17.60;;;;;;;8.36;48.58;97169.45;1717605;83;21107;-71
2021/03/15 11:39:14;;;;;;;16.65;11.28;;;;;;;8.15;47.44;97156.69;1717475;82;21211;-71
2021/03/15 11:41:42;;;;;;;16.55;9.88;;;;;;;8.10;48.77;97160.77;1717291;83;21151;-71
2021/03/15 11:44:08;;;;;;;27.57;10.37;;;;;;;8.17;49.40;97154.50;1717666;82;21240;-72